createdAt,value
2018-07-21T00:00:38.966Z,89.30
2018-07-21T00:03:07.222Z,89.40
2018-07-21T00:08:03.470Z,89.50
2018-07-21T00:10:31.727Z,89.50
2018-07-21T00:12:59.961Z,89.60
2018-07-21T00:15:28.555Z,89.50
2018-07-21T00:17:56.786Z,89.30
2018-07-21T00:20:25.043Z,89.10
2018-07-21T00:22:53.264Z,89.40
2018-07-21T00:25:21.596Z,89.10
2018-07-21T00:27:50.180Z,88.80
2018-07-21T00:30:18.442Z,88.40
2018-07-21T00:32:46.976Z,88.10
2018-07-21T00:35:17.359Z,88.10
2018-07-21T00:37:45.559Z,88.20
2018-07-21T00:40:13.780Z,87.90
2018-07-21T00:42:42.251Z,88.10
2018-07-21T00:45:10.677Z,88.10
2018-07-21T00:47:38.892Z,88.50
2018-07-21T00:52:36.011Z,88.70
2018-07-21T00:55:04.674Z,88.30
2018-07-21T00:57:32.912Z,88.60
2018-07-21T01:00:01.118Z,88.30
2018-07-21T01:02:29.412Z,88.60
2018-07-21T01:04:57.679Z,88.70
2018-07-21T01:07:25.928Z,88.50
2018-07-21T01:09:54.108Z,88.30
2018-07-21T01:12:22.288Z,88.30
2018-07-21T01:14:50.511Z,88.50
2018-07-21T01:17:18.708Z,88.30
2018-07-21T01:19:46.898Z,88.10
2018-07-21T01:22:15.073Z,89.10
2018-07-21T01:24:43.625Z,88.90
2018-07-21T01:27:11.854Z,89.10
2018-07-21T01:29:40.056Z,88.70
2018-07-21T01:32:08.293Z,89.00
2018-07-21T01:34:36.587Z,88.90
2018-07-21T01:37:04.937Z,89.00
2018-07-21T01:39:33.140Z,88.80
2018-07-21T01:42:01.419Z,88.80
2018-07-21T01:44:29.696Z,89.10
2018-07-21T01:46:57.951Z,89.10
2018-07-21T01:49:26.118Z,89.00
2018-07-21T01:51:54.322Z,89.30
2018-07-21T01:54:22.763Z,88.90
2018-07-21T01:56:50.978Z,88.80
2018-07-21T01:59:19.237Z,88.80
2018-07-21T02:01:47.490Z,88.80
2018-07-21T02:04:15.828Z,88.80
2018-07-21T02:06:44.570Z,88.70
2018-07-21T02:09:13.329Z,88.70
2018-07-21T02:11:41.586Z,88.50
2018-07-21T02:14:09.937Z,88.50
2018-07-21T02:16:38.124Z,88.70
2018-07-21T02:19:06.411Z,88.80
2018-07-21T02:21:34.760Z,88.60
2018-07-21T02:24:03.088Z,88.60
2018-07-21T02:26:31.301Z,88.10
2018-07-21T02:29:00.194Z,88.20
2018-07-21T02:31:28.469Z,88.50
2018-07-21T02:33:56.809Z,88.50
2018-07-21T02:36:25.137Z,88.30
2018-07-21T02:38:53.619Z,88.50
2018-07-21T02:41:21.933Z,88.30
2018-07-21T02:43:50.153Z,88.40
2018-07-21T02:46:18.422Z,88.10
2018-07-21T02:48:46.650Z,88.20
2018-07-21T02:51:14.894Z,88.30
2018-07-21T02:53:43.086Z,88.20
2018-07-21T02:56:11.319Z,88.30
2018-07-21T02:58:39.522Z,88.20
2018-07-21T03:01:07.985Z,88.20
2018-07-21T03:03:36.199Z,88.50
2018-07-21T03:06:04.583Z,89.30
2018-07-21T03:08:32.797Z,88.70
2018-07-21T03:11:01.024Z,88.70
2018-07-21T03:13:29.274Z,88.50
2018-07-21T03:15:57.672Z,88.20
2018-07-21T03:18:25.882Z,88.20
2018-07-21T03:20:54.134Z,88.40
2018-07-21T03:23:22.420Z,88.20
2018-07-21T03:25:50.765Z,88.10
2018-07-21T03:28:19.050Z,88.00
2018-07-21T03:30:47.452Z,87.70
2018-07-21T03:33:15.584Z,87.90
2018-07-21T03:35:43.887Z,88.00
2018-07-21T03:38:12.203Z,88.00
2018-07-21T03:40:41.559Z,88.00
2018-07-21T03:43:09.796Z,88.10
2018-07-21T03:45:38.185Z,88.30
2018-07-21T03:48:06.496Z,88.40
2018-07-21T03:50:34.843Z,88.30
2018-07-21T03:53:03.612Z,88.20
2018-07-21T03:55:31.913Z,88.20
2018-07-21T03:58:00.135Z,88.50
2018-07-21T04:00:28.588Z,88.60
2018-07-21T04:02:56.852Z,89.00
2018-07-21T04:05:25.272Z,89.20
2018-07-21T04:07:53.528Z,89.40
2018-07-21T04:10:21.760Z,89.60
2018-07-21T04:12:49.991Z,89.90
2018-07-21T04:15:18.893Z,90.10
2018-07-21T04:17:47.047Z,90.20
2018-07-21T04:20:15.238Z,90.40
2018-07-21T04:22:43.456Z,90.50
2018-07-21T04:25:11.840Z,90.50
2018-07-21T04:27:40.002Z,90.60
2018-07-21T04:30:08.237Z,90.60
2018-07-21T04:32:36.491Z,90.70
2018-07-21T04:35:04.811Z,90.80
2018-07-21T04:37:33.040Z,90.90
2018-07-21T04:40:01.261Z,91.00
2018-07-21T04:42:29.481Z,91.00
2018-07-21T04:44:57.869Z,90.90
2018-07-21T04:47:26.147Z,90.90
2018-07-21T04:49:54.343Z,91.00
2018-07-21T04:52:22.582Z,91.10
2018-07-21T04:54:50.958Z,91.30
2018-07-21T04:57:19.174Z,91.40
2018-07-21T04:59:47.391Z,91.30
2018-07-21T05:02:15.539Z,91.40
2018-07-21T05:04:43.814Z,91.90
2018-07-21T05:07:11.998Z,91.70
2018-07-21T05:09:40.219Z,91.90
2018-07-21T05:12:08.544Z,92.00
2018-07-21T05:14:37.221Z,92.10
2018-07-21T05:17:05.492Z,92.10
2018-07-21T05:19:33.665Z,92.20
2018-07-21T05:22:01.891Z,92.20
2018-07-21T05:24:30.288Z,92.10
2018-07-21T05:26:58.471Z,92.10
2018-07-21T05:29:26.640Z,91.90
2018-07-21T05:31:54.908Z,91.70
2018-07-21T05:34:24.206Z,91.50
2018-07-21T05:36:52.424Z,91.20
2018-07-21T05:39:20.661Z,90.90
2018-07-21T05:41:48.887Z,90.80
2018-07-21T05:44:17.249Z,90.70
2018-07-21T05:46:45.473Z,90.70
2018-07-21T05:49:13.703Z,90.40
2018-07-21T05:51:41.901Z,90.30
2018-07-21T05:54:10.186Z,90.10
2018-07-21T05:56:38.358Z,90.00
2018-07-21T05:59:06.571Z,89.70
2018-07-21T06:01:34.767Z,89.10
2018-07-21T06:04:03.071Z,89.50
2018-07-21T06:06:31.371Z,90.00
2018-07-21T06:08:59.631Z,89.80
2018-07-21T06:11:27.877Z,89.60
2018-07-21T06:13:56.208Z,89.10
2018-07-21T06:16:24.452Z,88.60
2018-07-21T06:18:52.639Z,88.30
2018-07-21T06:21:20.884Z,87.90
2018-07-21T06:23:49.306Z,87.40
2018-07-21T06:26:17.527Z,87.50
2018-07-21T06:28:45.731Z,87.20
2018-07-21T06:31:13.934Z,86.80
2018-07-21T06:33:42.126Z,86.50
2018-07-21T06:36:10.495Z,86.60
2018-07-21T06:38:38.765Z,86.00
2018-07-21T06:41:07.418Z,86.20
2018-07-21T06:43:35.870Z,86.40
2018-07-21T06:46:04.246Z,86.00
2018-07-21T06:48:32.602Z,86.50
2018-07-21T06:51:00.978Z,87.40
2018-07-21T06:53:29.291Z,87.60
2018-07-21T06:55:57.714Z,87.30
2018-07-21T06:58:25.924Z,87.40
2018-07-21T07:00:54.152Z,87.60
2018-07-21T07:03:22.380Z,88.20
2018-07-21T07:05:50.784Z,88.80
2018-07-21T07:08:19.014Z,88.70
2018-07-21T07:10:47.335Z,88.90
2018-07-21T07:13:15.522Z,87.70
2018-07-21T07:18:11.745Z,87.70
2018-07-21T07:20:39.939Z,87.90
2018-07-21T07:23:08.192Z,88.30
2018-07-21T07:25:37.642Z,87.10
2018-07-21T07:28:05.891Z,86.70
2018-07-21T07:30:34.130Z,86.60
2018-07-21T07:33:02.438Z,87.00
2018-07-21T07:35:30.674Z,87.20
2018-07-21T07:37:58.844Z,87.60
2018-07-21T07:40:27.092Z,86.60
2018-07-21T07:42:55.326Z,87.00
2018-07-21T07:45:23.572Z,87.00
2018-07-21T07:47:51.770Z,86.70
2018-07-21T07:50:19.960Z,86.60
2018-07-21T07:52:48.162Z,86.90
2018-07-21T07:55:16.496Z,86.30
2018-07-21T07:57:44.702Z,85.60
2018-07-21T08:00:13.100Z,85.50
2018-07-21T08:02:41.313Z,85.70
2018-07-21T08:05:10.680Z,85.70
2018-07-21T08:07:38.934Z,85.90
2018-07-21T08:10:07.755Z,85.80
2018-07-21T08:12:36.016Z,85.90
2018-07-21T08:15:04.398Z,86.60
2018-07-21T08:17:32.596Z,86.10
2018-07-21T08:20:00.850Z,85.70
2018-07-21T08:22:29.051Z,85.50
2018-07-21T08:24:58.488Z,84.80
2018-07-21T08:27:26.739Z,86.50
2018-07-21T08:29:54.972Z,85.50
2018-07-21T08:32:23.238Z,85.80
2018-07-21T08:34:51.603Z,84.90
2018-07-21T08:37:19.850Z,85.60
2018-07-21T08:39:48.029Z,86.50
2018-07-21T08:42:16.365Z,85.60
2018-07-21T08:44:44.633Z,85.20
2018-07-21T08:47:12.843Z,85.20
2018-07-21T08:49:41.086Z,84.80
2018-07-21T08:52:09.265Z,84.90
2018-07-21T08:54:38.214Z,84.80
2018-07-21T08:57:06.617Z,84.80
2018-07-21T08:59:34.861Z,85.20
2018-07-21T09:02:03.081Z,85.10
2018-07-21T09:04:31.452Z,85.30
2018-07-21T09:06:59.690Z,85.80
2018-07-21T09:09:27.913Z,85.80
2018-07-21T09:11:56.134Z,86.20
2018-07-21T09:14:24.521Z,86.80
2018-07-21T09:16:52.761Z,86.70
2018-07-21T09:19:20.901Z,86.30
2018-07-21T09:21:49.061Z,85.50
2018-07-21T09:24:17.436Z,85.50
2018-07-21T09:26:45.636Z,84.10
2018-07-21T09:29:13.901Z,83.90
2018-07-21T09:31:42.170Z,84.20
2018-07-21T09:34:10.588Z,84.90
2018-07-21T09:36:38.833Z,85.20
2018-07-21T09:39:08.814Z,85.50
2018-07-21T09:41:37.004Z,85.90
2018-07-21T09:44:05.430Z,85.20
2018-07-21T09:49:02.024Z,84.50
2018-07-21T09:51:30.750Z,82.80
2018-07-21T09:54:00.375Z,83.70
2018-07-21T09:58:56.679Z,82.90
2018-07-21T10:01:24.954Z,82.80
2018-07-21T10:03:53.171Z,83.70
2018-07-21T10:06:21.425Z,84.10
2018-07-21T10:08:49.683Z,83.00
2018-07-21T10:11:17.859Z,83.70
2018-07-21T10:13:46.055Z,83.40
2018-07-21T10:16:14.307Z,84.00
2018-07-21T10:18:42.529Z,83.20
2018-07-21T10:21:10.721Z,83.40
2018-07-21T10:23:38.964Z,84.10
2018-07-21T10:26:12.646Z,84.30
2018-07-21T10:28:46.137Z,83.60
2018-07-21T10:31:14.346Z,83.40
2018-07-21T10:33:42.991Z,83.30
2018-07-21T10:36:11.217Z,83.60
2018-07-21T10:38:39.698Z,84.00
2018-07-21T10:41:07.889Z,84.40
2018-07-21T10:43:36.115Z,82.40
2018-07-21T10:48:32.312Z,84.10
2018-07-21T10:51:01.155Z,83.80
2018-07-21T10:53:29.346Z,83.30
2018-07-21T10:55:57.575Z,82.90
2018-07-21T10:58:25.791Z,82.50
2018-07-21T11:00:54.047Z,82.80
2018-07-21T11:03:22.241Z,83.50
2018-07-21T11:05:50.812Z,81.90
2018-07-21T11:08:18.991Z,82.10
2018-07-21T11:10:47.204Z,80.50
2018-07-21T11:13:15.440Z,81.60
2018-07-21T11:15:44.015Z,80.80
2018-07-21T11:18:12.239Z,82.90
2018-07-21T11:20:40.476Z,82.60
2018-07-21T11:23:08.873Z,81.30
2018-07-21T11:25:37.556Z,81.30
2018-07-21T11:28:05.776Z,81.40
2018-07-21T11:30:34.023Z,80.30
2018-07-21T11:33:02.280Z,79.90
2018-07-21T11:35:30.669Z,78.90
2018-07-21T11:37:58.915Z,79.40
2018-07-21T11:40:27.101Z,80.30
2018-07-21T11:42:55.298Z,80.20
2018-07-21T11:45:25.825Z,78.50
2018-07-21T11:47:55.008Z,79.20
2018-07-21T11:50:23.197Z,80.10
2018-07-21T11:52:51.675Z,80.40
2018-07-21T11:55:20.082Z,78.80
2018-07-21T11:57:48.308Z,78.70
2018-07-21T12:00:16.494Z,77.70
2018-07-21T12:02:44.815Z,77.00
2018-07-21T12:05:13.173Z,76.50
2018-07-21T12:07:41.392Z,76.20
2018-07-21T12:10:09.635Z,75.60
2018-07-21T12:12:38.111Z,75.80
2018-07-21T12:17:35.380Z,76.70
2018-07-21T12:20:03.613Z,76.50
2018-07-21T12:22:31.826Z,76.60
2018-07-21T12:25:00.075Z,76.50
2018-07-21T12:27:28.280Z,76.60
2018-07-21T12:29:56.459Z,75.00
2018-07-21T12:34:52.788Z,75.20
2018-07-21T12:39:49.005Z,75.50
2018-07-21T12:42:17.261Z,73.00
2018-07-21T12:44:45.547Z,74.10
2018-07-21T12:47:14.058Z,75.20
2018-07-21T12:49:42.323Z,74.70
2018-07-21T12:52:10.903Z,71.70
2018-07-21T12:57:08.533Z,73.50
2018-07-21T12:59:37.112Z,73.50
2018-07-21T13:02:05.446Z,73.20
2018-07-21T13:04:34.072Z,72.60
2018-07-21T13:07:02.448Z,72.40
2018-07-21T13:09:30.625Z,73.50
2018-07-21T13:11:58.867Z,74.60
2018-07-21T13:14:27.077Z,73.80
2018-07-21T13:16:55.355Z,73.80
2018-07-21T13:19:23.579Z,73.40
2018-07-21T13:21:51.778Z,72.40
2018-07-21T13:24:19.981Z,71.80
2018-07-21T13:26:48.296Z,72.70
2018-07-21T13:29:16.529Z,73.20
2018-07-21T13:31:44.756Z,72.90
2018-07-21T13:34:13.197Z,73.10
2018-07-21T13:36:41.421Z,73.00
2018-07-21T13:39:11.032Z,73.30
2018-07-21T13:44:08.817Z,73.80
2018-07-21T13:46:37.023Z,73.70
2018-07-21T13:49:05.197Z,73.10
2018-07-21T13:51:33.418Z,73.90
2018-07-21T13:54:02.146Z,74.50
2018-07-21T13:56:31.120Z,74.70
2018-07-21T13:58:59.479Z,74.70
2018-07-21T14:01:27.728Z,75.20
2018-07-21T14:03:58.138Z,74.70
2018-07-21T14:06:26.354Z,74.60
2018-07-21T14:08:54.685Z,74.70
2018-07-21T14:11:22.847Z,75.90
2018-07-21T14:13:51.091Z,76.10
2018-07-21T14:16:19.335Z,75.60
2018-07-21T14:18:47.605Z,75.20
2018-07-21T14:21:15.837Z,75.10
2018-07-21T14:23:44.123Z,76.40
2018-07-21T14:26:12.337Z,75.60
2018-07-21T14:28:40.545Z,76.00
2018-07-21T14:31:08.784Z,76.30
2018-07-21T14:33:36.972Z,77.00
2018-07-21T14:36:05.740Z,76.80
2018-07-21T14:38:34.030Z,76.50
2018-07-21T14:41:02.246Z,75.80
2018-07-21T14:43:30.458Z,75.60
2018-07-21T14:45:58.882Z,77.30
2018-07-21T14:48:27.061Z,77.40
2018-07-21T14:50:55.536Z,78.30
2018-07-21T14:53:23.718Z,78.20
2018-07-21T14:55:52.061Z,77.20
2018-07-21T14:58:20.235Z,77.60
2018-07-21T15:00:48.456Z,77.10
2018-07-21T15:03:16.691Z,76.70
2018-07-21T15:05:45.040Z,78.00
2018-07-21T15:08:13.277Z,78.60
2018-07-21T15:10:41.523Z,77.60
2018-07-21T15:13:09.750Z,75.60
2018-07-21T15:15:38.115Z,76.10
2018-07-21T15:18:06.371Z,76.30
2018-07-21T15:20:34.540Z,76.20
2018-07-21T15:23:02.749Z,76.30
2018-07-21T15:25:31.026Z,76.40
2018-07-21T15:27:59.307Z,76.50
2018-07-21T15:30:27.976Z,77.00
2018-07-21T15:32:56.160Z,78.00
2018-07-21T15:35:24.558Z,78.10
2018-07-21T15:37:52.802Z,77.70
2018-07-21T15:40:21.045Z,79.10
2018-07-21T15:42:49.130Z,79.50
2018-07-21T15:45:17.481Z,78.10
2018-07-21T15:47:45.667Z,78.20
2018-07-21T15:50:14.133Z,78.30
2018-07-21T15:52:42.522Z,76.60
2018-07-21T15:55:10.971Z,77.20
2018-07-21T15:57:39.239Z,77.00
2018-07-21T16:00:08.536Z,78.30
2018-07-21T16:02:36.747Z,76.10
2018-07-21T16:05:05.167Z,76.30
2018-07-21T16:07:33.340Z,77.30
2018-07-21T16:10:01.514Z,77.30
2018-07-21T16:12:29.704Z,76.60
2018-07-21T16:15:03.867Z,78.10
2018-07-21T16:17:26.355Z,78.30
2018-07-21T16:19:54.534Z,77.90
2018-07-21T16:22:22.820Z,78.10
2018-07-21T16:24:51.066Z,78.30
2018-07-21T16:27:19.362Z,78.90
2018-07-21T16:29:47.543Z,79.90
2018-07-21T16:32:15.780Z,80.40
2018-07-21T16:34:44.198Z,80.60
2018-07-21T16:37:12.460Z,79.70
2018-07-21T16:39:41.400Z,80.00
2018-07-21T16:42:10.312Z,80.70
2018-07-21T16:44:38.817Z,81.00
2018-07-21T16:47:07.190Z,80.70
2018-07-21T16:49:35.425Z,81.70
2018-07-21T16:52:03.673Z,81.80
2018-07-21T16:54:31.949Z,80.60
2018-07-21T16:57:00.153Z,80.90
2018-07-21T16:59:28.345Z,81.10
2018-07-21T17:01:56.663Z,80.60
2018-07-21T17:04:25.089Z,81.80
2018-07-21T17:06:53.340Z,81.70
2018-07-21T17:09:21.569Z,80.70
2018-07-21T17:11:49.778Z,81.00
2018-07-21T17:14:18.703Z,80.20
2018-07-21T17:19:14.970Z,81.10
2018-07-21T17:21:43.226Z,82.40
2018-07-21T17:24:11.514Z,82.50
2018-07-21T17:26:39.684Z,82.60
2018-07-21T17:29:07.919Z,82.60
2018-07-21T17:31:36.248Z,82.70
2018-07-21T17:36:32.695Z,80.40
2018-07-21T17:39:00.884Z,79.30
2018-07-21T17:41:29.081Z,78.60
2018-07-21T17:43:57.233Z,78.80
2018-07-21T17:46:25.498Z,78.30
2018-07-21T17:48:53.682Z,78.10
2018-07-21T17:51:21.866Z,77.10
2018-07-21T17:53:50.062Z,76.30
2018-07-21T17:56:18.257Z,75.00
2018-07-21T17:58:46.429Z,73.30
2018-07-21T18:01:14.712Z,72.90
2018-07-21T18:03:43.802Z,73.80
2018-07-21T18:06:12.974Z,74.20
2018-07-21T18:08:41.181Z,75.90
2018-07-21T18:11:09.379Z,76.10
2018-07-21T18:13:37.626Z,77.10
2018-07-21T18:16:05.927Z,76.00
2018-07-21T18:18:34.117Z,74.80
2018-07-21T18:21:02.441Z,75.60
2018-07-21T18:23:30.674Z,76.10
2018-07-21T18:25:59.003Z,76.90
2018-07-21T18:28:27.231Z,77.60
2018-07-21T18:30:55.549Z,78.10
2018-07-21T18:33:23.817Z,78.80
2018-07-21T18:35:52.096Z,77.90
2018-07-21T18:38:20.347Z,77.30
2018-07-21T18:40:48.681Z,78.20
2018-07-21T18:43:16.932Z,79.60
2018-07-21T18:45:45.284Z,79.70
2018-07-21T18:48:13.527Z,78.40
2018-07-21T18:50:41.792Z,78.90
2018-07-21T18:53:10.010Z,79.00
2018-07-21T18:55:38.264Z,79.90
2018-07-21T18:58:06.694Z,80.20
2018-07-21T19:00:35.342Z,80.40
2018-07-21T19:03:03.536Z,80.00
2018-07-21T19:05:31.777Z,79.60
2018-07-21T19:08:00.663Z,80.00
2018-07-21T19:10:28.879Z,78.90
2018-07-21T19:12:57.128Z,78.80
2018-07-21T19:15:30.946Z,77.90
2018-07-21T19:17:59.139Z,77.50
2018-07-21T19:20:32.899Z,76.30
2018-07-21T19:23:01.177Z,76.70
2018-07-21T19:25:34.768Z,76.50
2018-07-21T19:28:03.962Z,77.40
2018-07-21T19:30:32.186Z,76.90
2018-07-21T19:33:01.278Z,78.00
2018-07-21T19:35:30.947Z,78.70
2018-07-21T19:37:59.179Z,78.80
2018-07-21T19:42:55.444Z,78.00
2018-07-21T19:45:23.744Z,77.80
2018-07-21T19:47:52.011Z,78.70
2018-07-21T19:50:20.998Z,79.10
2018-07-21T19:52:49.377Z,79.80
2018-07-21T19:55:18.000Z,80.40
2018-07-21T19:57:46.211Z,81.00
2018-07-21T20:00:15.632Z,81.50
2018-07-21T20:02:43.832Z,82.10
2018-07-21T20:05:12.192Z,82.80
2018-07-21T20:07:40.568Z,83.20
2018-07-21T20:10:08.782Z,83.40
2018-07-21T20:12:36.978Z,83.50
2018-07-21T20:15:05.298Z,83.40
2018-07-21T20:17:33.508Z,83.50
2018-07-21T20:20:01.704Z,83.60
2018-07-21T20:24:58.220Z,83.70
2018-07-21T20:27:26.428Z,83.90
2018-07-21T20:29:54.654Z,84.10
2018-07-21T20:32:22.885Z,84.30
2018-07-21T20:34:52.388Z,84.30
2018-07-21T20:37:20.882Z,84.30
2018-07-21T20:39:49.095Z,84.40
2018-07-21T20:42:17.276Z,84.10
2018-07-21T20:44:45.558Z,84.10
2018-07-21T20:47:13.792Z,84.40
2018-07-21T20:49:42.030Z,84.10
2018-07-21T20:52:10.558Z,83.90
2018-07-21T20:54:38.780Z,82.60
2018-07-21T20:57:07.248Z,82.60
2018-07-21T20:59:35.536Z,82.30
2018-07-21T21:02:03.821Z,82.60
2018-07-21T21:04:32.175Z,82.40
2018-07-21T21:07:00.526Z,82.60
2018-07-21T21:09:28.922Z,82.20
2018-07-21T21:11:57.213Z,82.30
2018-07-21T21:14:25.430Z,83.10
2018-07-21T21:16:53.646Z,83.80
2018-07-21T21:19:21.979Z,84.70
2018-07-21T21:21:50.356Z,85.40
2018-07-21T21:24:18.741Z,85.70
2018-07-21T21:26:48.017Z,86.20
2018-07-21T21:29:16.245Z,86.50
2018-07-21T21:31:44.420Z,87.00
2018-07-21T21:34:12.786Z,87.80
2018-07-21T21:36:41.050Z,88.20
2018-07-21T21:39:11.118Z,88.60
2018-07-21T21:41:39.378Z,89.30
2018-07-21T21:44:07.800Z,89.60
2018-07-21T21:46:42.592Z,89.60
2018-07-21T21:49:10.835Z,90.00
2018-07-21T21:51:39.091Z,90.10
2018-07-21T21:54:07.482Z,90.20
2018-07-21T21:56:35.674Z,90.50
2018-07-21T21:59:03.853Z,90.20
2018-07-21T22:01:32.134Z,90.40
2018-07-21T22:04:00.411Z,90.40
2018-07-21T22:06:28.665Z,90.40
2018-07-21T22:08:56.944Z,90.20
2018-07-21T22:11:25.176Z,90.20
2018-07-21T22:13:54.487Z,90.20
2018-07-21T22:16:22.722Z,90.20
2018-07-21T22:18:51.034Z,90.30
2018-07-21T22:21:19.242Z,90.30
2018-07-21T22:23:47.430Z,90.50
2018-07-21T22:26:15.635Z,90.50
2018-07-21T22:28:43.846Z,90.60
2018-07-21T22:31:12.055Z,90.40
2018-07-21T22:33:40.272Z,90.40
2018-07-21T22:36:08.560Z,90.50
2018-07-21T22:38:36.772Z,90.30
2018-07-21T22:43:33.020Z,90.20
2018-07-21T22:46:01.249Z,90.10
2018-07-21T22:48:30.214Z,90.30
2018-07-21T22:50:58.564Z,90.20
2018-07-21T22:53:26.785Z,90.00
2018-07-21T22:55:55.220Z,90.20
2018-07-21T22:58:23.438Z,90.00
2018-07-21T23:00:51.864Z,89.80
2018-07-21T23:03:20.043Z,89.60
2018-07-21T23:05:48.301Z,89.50
2018-07-21T23:10:44.531Z,89.00
2018-07-21T23:13:12.739Z,88.80
2018-07-21T23:15:40.961Z,88.80
2018-07-21T23:18:09.561Z,88.80
2018-07-21T23:20:37.739Z,88.90
2018-07-21T23:23:06.119Z,89.10
2018-07-21T23:25:34.464Z,89.20
2018-07-21T23:28:02.723Z,89.30
2018-07-21T23:30:30.914Z,89.10
2018-07-21T23:32:59.960Z,89.20
2018-07-21T23:35:28.147Z,89.10
2018-07-21T23:37:56.346Z,89.00
2018-07-21T23:40:24.542Z,89.20
2018-07-21T23:42:52.741Z,89.00
2018-07-21T23:45:21.088Z,89.30
2018-07-21T23:47:49.290Z,89.40
2018-07-21T23:50:17.495Z,88.70
2018-07-21T23:52:45.687Z,89.00
2018-07-21T23:55:13.931Z,89.00
2018-07-21T23:57:42.603Z,89.10
